sensor_id;sensor_type;location;lat;lon;timestamp;P1;durP1;ratioP1;P2;durP2;ratioP2
55218;SDS011;65463;43.864;20.136;2023-10-13T00:00:33;25.25;;;12.13;;
55218;SDS011;65463;43.864;20.136;2023-10-13T00:03:04;23.63;;;10.85;;
55218;SDS011;65463;43.864;20.136;2023-10-13T00:05:31;20.85;;;10.45;;
55218;SDS011;65463;43.864;20.136;2023-10-13T00:07:58;20.90;;;10.48;;
55218;SDS011;65463;43.864;20.136;2023-10-13T00:10:28;19.15;;;9.88;;
55218;SDS011;65463;43.864;20.136;2023-10-13T00:12:55;20.33;;;9.75;;
55218;SDS011;65463;43.864;20.136;2023-10-13T00:15:31;20.38;;;10.13;;
55218;SDS011;65463;43.864;20.136;2023-10-13T00:18:05;20.73;;;9.48;;
55218;SDS011;65463;43.864;20.136;2023-10-13T00:20:43;23.38;;;10.10;;
55218;SDS011;65463;43.864;20.136;2023-10-13T00:23:15;20.98;;;10.68;;
55218;SDS011;65463;43.864;20.136;2023-10-13T00:28:15;18.55;;;9.68;;
55218;SDS011;65463;43.864;20.136;2023-10-13T00:30:52;19.42;;;9.73;;
55218;SDS011;65463;43.864;20.136;2023-10-13T00:33:25;18.80;;;10.18;;
55218;SDS011;65463;43.864;20.136;2023-10-13T00:35:52;18.60;;;9.77;;
55218;SDS011;65463;43.864;20.136;2023-10-13T00:38:22;16.80;;;9.63;;
55218;SDS011;65463;43.864;20.136;2023-10-13T00:40:48;18.17;;;9.43;;
55218;SDS011;65463;43.864;20.136;2023-10-13T00:43:20;26.30;;;9.55;;
55218;SDS011;65463;43.864;20.136;2023-10-13T00:45:50;16.35;;;9.32;;
55218;SDS011;65463;43.864;20.136;2023-10-13T00:50:55;18.50;;;9.63;;
55218;SDS011;65463;43.864;20.136;2023-10-13T00:53:22;17.50;;;10.20;;
55218;SDS011;65463;43.864;20.136;2023-10-13T00:55:50;35.50;;;12.10;;
55218;SDS011;65463;43.864;20.136;2023-10-13T00:58:17;24.05;;;11.90;;
55218;SDS011;65463;43.864;20.136;2023-10-13T01:00:47;26.17;;;12.93;;
55218;SDS011;65463;43.864;20.136;2023-10-13T01:03:14;22.60;;;11.20;;
55218;SDS011;65463;43.864;20.136;2023-10-13T01:05:40;21.25;;;11.07;;
55218;SDS011;65463;43.864;20.136;2023-10-13T01:08:07;24.42;;;10.88;;
55218;SDS011;65463;43.864;20.136;2023-10-13T01:10:36;25.23;;;11.13;;
55218;SDS011;65463;43.864;20.136;2023-10-13T01:13:06;27.67;;;11.80;;
55218;SDS011;65463;43.864;20.136;2023-10-13T01:15:32;26.90;;;11.40;;
55218;SDS011;65463;43.864;20.136;2023-10-13T01:18:11;25.85;;;11.77;;
55218;SDS011;65463;43.864;20.136;2023-10-13T01:20:39;24.08;;;11.25;;
55218;SDS011;65463;43.864;20.136;2023-10-13T01:23:11;26.02;;;10.85;;
55218;SDS011;65463;43.864;20.136;2023-10-13T01:25:44;24.08;;;10.70;;
55218;SDS011;65463;43.864;20.136;2023-10-13T01:28:10;25.92;;;11.07;;
55218;SDS011;65463;43.864;20.136;2023-10-13T01:30:41;24.85;;;11.45;;
55218;SDS011;65463;43.864;20.136;2023-10-13T01:33:07;24.45;;;10.85;;
55218;SDS011;65463;43.864;20.136;2023-10-13T01:35:36;28.02;;;11.55;;
55218;SDS011;65463;43.864;20.136;2023-10-13T01:38:06;27.95;;;12.07;;
55218;SDS011;65463;43.864;20.136;2023-10-13T01:40:33;26.67;;;11.18;;
55218;SDS011;65463;43.864;20.136;2023-10-13T01:43:00;24.73;;;11.40;;
55218;SDS011;65463;43.864;20.136;2023-10-13T01:45:26;26.67;;;10.85;;
55218;SDS011;65463;43.864;20.136;2023-10-13T01:47:55;22.63;;;10.85;;
55218;SDS011;65463;43.864;20.136;2023-10-13T01:50:22;24.85;;;10.63;;
55218;SDS011;65463;43.864;20.136;2023-10-13T01:52:55;28.40;;;11.00;;
55218;SDS011;65463;43.864;20.136;2023-10-13T01:55:40;27.55;;;10.88;;
55218;SDS011;65463;43.864;20.136;2023-10-13T01:58:13;25.23;;;10.80;;
55218;SDS011;65463;43.864;20.136;2023-10-13T02:00:40;25.45;;;9.63;;
55218;SDS011;65463;43.864;20.136;2023-10-13T02:03:08;23.17;;;10.15;;
55218;SDS011;65463;43.864;20.136;2023-10-13T02:05:42;23.30;;;9.80;;
55218;SDS011;65463;43.864;20.136;2023-10-13T02:08:22;21.92;;;10.30;;
55218;SDS011;65463;43.864;20.136;2023-10-13T02:10:53;23.65;;;9.27;;
55218;SDS011;65463;43.864;20.136;2023-10-13T02:13:20;25.27;;;10.70;;
55218;SDS011;65463;43.864;20.136;2023-10-13T02:15:47;30.50;;;11.32;;
55218;SDS011;65463;43.864;20.136;2023-10-13T02:18:16;24.10;;;11.23;;
55218;SDS011;65463;43.864;20.136;2023-10-13T02:20:51;25.60;;;11.45;;
55218;SDS011;65463;43.864;20.136;2023-10-13T02:23:24;23.25;;;10.80;;
55218;SDS011;65463;43.864;20.136;2023-10-13T02:25:54;20.40;;;10.80;;
55218;SDS011;65463;43.864;20.136;2023-10-13T02:28:36;24.27;;;10.45;;
55218;SDS011;65463;43.864;20.136;2023-10-13T02:31:02;21.88;;;10.77;;
55218;SDS011;65463;43.864;20.136;2023-10-13T02:33:32;22.48;;;10.90;;
55218;SDS011;65463;43.864;20.136;2023-10-13T02:36:02;22.85;;;10.27;;
55218;SDS011;65463;43.864;20.136;2023-10-13T02:38:32;19.20;;;9.93;;
55218;SDS011;65463;43.864;20.136;2023-10-13T02:41:14;23.92;;;10.32;;
55218;SDS011;65463;43.864;20.136;2023-10-13T02:43:45;24.98;;;10.30;;
55218;SDS011;65463;43.864;20.136;2023-10-13T02:46:12;24.45;;;9.63;;
55218;SDS011;65463;43.864;20.136;2023-10-13T02:48:41;21.05;;;9.60;;
55218;SDS011;65463;43.864;20.136;2023-10-13T02:51:11;20.67;;;9.93;;
55218;SDS011;65463;43.864;20.136;2023-10-13T02:53:44;20.08;;;9.73;;
55218;SDS011;65463;43.864;20.136;2023-10-13T02:56:17;17.98;;;10.23;;
55218;SDS011;65463;43.864;20.136;2023-10-13T02:58:49;25.95;;;11.45;;
55218;SDS011;65463;43.864;20.136;2023-10-13T03:01:21;22.27;;;10.45;;
55218;SDS011;65463;43.864;20.136;2023-10-13T03:03:54;19.88;;;10.40;;
55218;SDS011;65463;43.864;20.136;2023-10-13T03:06:21;21.80;;;10.32;;
55218;SDS011;65463;43.864;20.136;2023-10-13T03:09:19;21.73;;;10.68;;
55218;SDS011;65463;43.864;20.136;2023-10-13T03:11:44;21.58;;;10.43;;
55218;SDS011;65463;43.864;20.136;2023-10-13T03:14:21;24.98;;;10.93;;
55218;SDS011;65463;43.864;20.136;2023-10-13T03:16:59;22.95;;;10.52;;
55218;SDS011;65463;43.864;20.136;2023-10-13T03:19:28;19.42;;;10.45;;
55218;SDS011;65463;43.864;20.136;2023-10-13T03:21:58;20.42;;;10.25;;
55218;SDS011;65463;43.864;20.136;2023-10-13T03:24:34;21.10;;;10.07;;
55218;SDS011;65463;43.864;20.136;2023-10-13T03:27:00;21.25;;;10.70;;
55218;SDS011;65463;43.864;20.136;2023-10-13T03:29:37;22.20;;;10.40;;
55218;SDS011;65463;43.864;20.136;2023-10-13T03:32:09;24.30;;;11.02;;
55218;SDS011;65463;43.864;20.136;2023-10-13T03:34:41;27.52;;;10.55;;
55218;SDS011;65463;43.864;20.136;2023-10-13T03:37:26;21.08;;;10.23;;
55218;SDS011;65463;43.864;20.136;2023-10-13T03:40:08;20.65;;;10.35;;
55218;SDS011;65463;43.864;20.136;2023-10-13T03:42:51;19.70;;;9.63;;
55218;SDS011;65463;43.864;20.136;2023-10-13T03:45:33;21.50;;;9.70;;
55218;SDS011;65463;43.864;20.136;2023-10-13T03:48:07;18.30;;;9.48;;
55218;SDS011;65463;43.864;20.136;2023-10-13T03:51:01;18.00;;;9.73;;
55218;SDS011;65463;43.864;20.136;2023-10-13T03:53:40;18.83;;;9.30;;
55218;SDS011;65463;43.864;20.136;2023-10-13T03:56:19;26.75;;;10.02;;
55218;SDS011;65463;43.864;20.136;2023-10-13T03:58:52;22.42;;;9.82;;
55218;SDS011;65463;43.864;20.136;2023-10-13T04:01:37;22.17;;;9.52;;
55218;SDS011;65463;43.864;20.136;2023-10-13T04:04:23;18.23;;;9.07;;
55218;SDS011;65463;43.864;20.136;2023-10-13T04:07:00;21.98;;;9.50;;
55218;SDS011;65463;43.864;20.136;2023-10-13T04:09:34;18.02;;;8.98;;
55218;SDS011;65463;43.864;20.136;2023-10-13T04:12:01;15.95;;;9.07;;
55218;SDS011;65463;43.864;20.136;2023-10-13T04:14:30;17.35;;;8.82;;
55218;SDS011;65463;43.864;20.136;2023-10-13T04:17:15;15.50;;;8.48;;
55218;SDS011;65463;43.864;20.136;2023-10-13T04:19:49;15.90;;;8.65;;
55218;SDS011;65463;43.864;20.136;2023-10-13T04:22:31;18.45;;;9.30;;
55218;SDS011;65463;43.864;20.136;2023-10-13T04:25:20;19.38;;;9.52;;
55218;SDS011;65463;43.864;20.136;2023-10-13T04:28:21;17.25;;;8.88;;
55218;SDS011;65463;43.864;20.136;2023-10-13T04:30:53;18.92;;;9.05;;
55218;SDS011;65463;43.864;20.136;2023-10-13T04:38:38;18.00;;;9.02;;
55218;SDS011;65463;43.864;20.136;2023-10-13T04:41:21;18.80;;;9.50;;
55218;SDS011;65463;43.864;20.136;2023-10-13T04:43:48;17.77;;;9.07;;
55218;SDS011;65463;43.864;20.136;2023-10-13T04:46:30;33.50;;;10.65;;
55218;SDS011;65463;43.864;20.136;2023-10-13T04:49:10;35.58;;;9.65;;
55218;SDS011;65463;43.864;20.136;2023-10-13T04:52:01;31.95;;;9.52;;
55218;SDS011;65463;43.864;20.136;2023-10-13T04:54:33;22.35;;;10.10;;
55218;SDS011;65463;43.864;20.136;2023-10-13T04:57:15;23.45;;;9.60;;
55218;SDS011;65463;43.864;20.136;2023-10-13T04:59:44;23.88;;;9.80;;
55218;SDS011;65463;43.864;20.136;2023-10-13T05:02:29;24.27;;;8.75;;
55218;SDS011;65463;43.864;20.136;2023-10-13T05:07:47;19.20;;;8.90;;
55218;SDS011;65463;43.864;20.136;2023-10-13T05:10:33;18.25;;;9.40;;
55218;SDS011;65463;43.864;20.136;2023-10-13T05:13:18;20.05;;;8.45;;
55218;SDS011;65463;43.864;20.136;2023-10-13T05:16:08;29.92;;;8.88;;
55218;SDS011;65463;43.864;20.136;2023-10-13T05:18:52;24.90;;;8.65;;
55218;SDS011;65463;43.864;20.136;2023-10-13T05:21:37;24.00;;;9.05;;
55218;SDS011;65463;43.864;20.136;2023-10-13T05:24:24;20.80;;;8.50;;
55218;SDS011;65463;43.864;20.136;2023-10-13T05:27:09;24.17;;;8.05;;
55218;SDS011;65463;43.864;20.136;2023-10-13T05:29:53;26.05;;;8.98;;
55218;SDS011;65463;43.864;20.136;2023-10-13T05:32:39;25.60;;;8.60;;
55218;SDS011;65463;43.864;20.136;2023-10-13T05:35:26;19.70;;;8.63;;
55218;SDS011;65463;43.864;20.136;2023-10-13T05:38:11;22.35;;;9.45;;
55218;SDS011;65463;43.864;20.136;2023-10-13T05:40:59;19.73;;;9.57;;
55218;SDS011;65463;43.864;20.136;2023-10-13T05:43:44;23.70;;;10.60;;
55218;SDS011;65463;43.864;20.136;2023-10-13T05:46:30;33.60;;;11.07;;
55218;SDS011;65463;43.864;20.136;2023-10-13T05:49:03;28.92;;;10.50;;
55218;SDS011;65463;43.864;20.136;2023-10-13T05:51:42;25.90;;;11.05;;
55218;SDS011;65463;43.864;20.136;2023-10-13T05:54:25;31.35;;;10.57;;
55218;SDS011;65463;43.864;20.136;2023-10-13T05:57:12;32.50;;;10.82;;
55218;SDS011;65463;43.864;20.136;2023-10-13T05:59:57;27.75;;;10.95;;
55218;SDS011;65463;43.864;20.136;2023-10-13T06:02:44;28.92;;;12.00;;
55218;SDS011;65463;43.864;20.136;2023-10-13T06:05:29;27.08;;;11.23;;
55218;SDS011;65463;43.864;20.136;2023-10-13T06:08:14;27.23;;;11.13;;
55218;SDS011;65463;43.864;20.136;2023-10-13T06:11:15;38.00;;;12.57;;
55218;SDS011;65463;43.864;20.136;2023-10-13T06:14:00;27.80;;;12.32;;
55218;SDS011;65463;43.864;20.136;2023-10-13T06:16:44;32.10;;;12.13;;
55218;SDS011;65463;43.864;20.136;2023-10-13T06:19:29;25.95;;;12.18;;
55218;SDS011;65463;43.864;20.136;2023-10-13T06:22:13;32.75;;;11.63;;
55218;SDS011;65463;43.864;20.136;2023-10-13T06:24:58;50.50;;;13.13;;
55218;SDS011;65463;43.864;20.136;2023-10-13T06:27:42;45.55;;;11.88;;
55218;SDS011;65463;43.864;20.136;2023-10-13T06:30:27;29.15;;;13.45;;
55218;SDS011;65463;43.864;20.136;2023-10-13T06:32:53;30.45;;;12.55;;
55218;SDS011;65463;43.864;20.136;2023-10-13T06:35:22;33.90;;;12.18;;
55218;SDS011;65463;43.864;20.136;2023-10-13T06:37:49;37.75;;;12.25;;
55218;SDS011;65463;43.864;20.136;2023-10-13T06:40:15;38.45;;;11.30;;
55218;SDS011;65463;43.864;20.136;2023-10-13T06:42:58;23.10;;;10.25;;
55218;SDS011;65463;43.864;20.136;2023-10-13T06:45:42;23.33;;;9.40;;
55218;SDS011;65463;43.864;20.136;2023-10-13T06:48:15;21.52;;;9.35;;
55218;SDS011;65463;43.864;20.136;2023-10-13T06:50:49;12.73;;;7.82;;
55218;SDS011;65463;43.864;20.136;2023-10-13T06:53:17;13.90;;;8.05;;
55218;SDS011;65463;43.864;20.136;2023-10-13T06:55:44;13.40;;;7.57;;
55218;SDS011;65463;43.864;20.136;2023-10-13T07:00:42;21.92;;;7.55;;
55218;SDS011;65463;43.864;20.136;2023-10-13T07:03:18;13.40;;;6.97;;
55218;SDS011;65463;43.864;20.136;2023-10-13T07:05:45;13.35;;;7.53;;
55218;SDS011;65463;43.864;20.136;2023-10-13T07:08:14;13.95;;;7.47;;
55218;SDS011;65463;43.864;20.136;2023-10-13T07:10:51;15.15;;;7.88;;
55218;SDS011;65463;43.864;20.136;2023-10-13T07:13:28;15.40;;;7.22;;
55218;SDS011;65463;43.864;20.136;2023-10-13T07:15:56;12.07;;;7.13;;
55218;SDS011;65463;43.864;20.136;2023-10-13T07:18:30;11.90;;;7.50;;
55218;SDS011;65463;43.864;20.136;2023-10-13T07:21:17;12.10;;;6.93;;
55218;SDS011;65463;43.864;20.136;2023-10-13T07:24:06;12.23;;;6.95;;
55218;SDS011;65463;43.864;20.136;2023-10-13T07:26:36;12.27;;;7.22;;
55218;SDS011;65463;43.864;20.136;2023-10-13T07:29:10;15.27;;;8.68;;
55218;SDS011;65463;43.864;20.136;2023-10-13T07:31:37;13.10;;;7.18;;
55218;SDS011;65463;43.864;20.136;2023-10-13T07:34:09;16.02;;;8.07;;
55218;SDS011;65463;43.864;20.136;2023-10-13T07:36:51;13.75;;;7.60;;
55218;SDS011;65463;43.864;20.136;2023-10-13T07:39:25;14.60;;;7.68;;
55218;SDS011;65463;43.864;20.136;2023-10-13T07:41:53;19.20;;;11.50;;
55218;SDS011;65463;43.864;20.136;2023-10-13T07:44:23;15.50;;;9.30;;
55218;SDS011;65463;43.864;20.136;2023-10-13T07:46:57;13.15;;;8.13;;
55218;SDS011;65463;43.864;20.136;2023-10-13T07:49:33;15.88;;;8.45;;
55218;SDS011;65463;43.864;20.136;2023-10-13T07:52:02;12.98;;;8.10;;
55218;SDS011;65463;43.864;20.136;2023-10-13T07:54:48;14.38;;;7.93;;
55218;SDS011;65463;43.864;20.136;2023-10-13T07:57:34;14.77;;;9.23;;
55218;SDS011;65463;43.864;20.136;2023-10-13T08:00:01;14.18;;;8.38;;
55218;SDS011;65463;43.864;20.136;2023-10-13T08:02:37;20.15;;;9.05;;
55218;SDS011;65463;43.864;20.136;2023-10-13T08:05:16;16.08;;;8.65;;
55218;SDS011;65463;43.864;20.136;2023-10-13T08:08:07;12.95;;;7.50;;
55218;SDS011;65463;43.864;20.136;2023-10-13T08:10:39;13.07;;;7.57;;
55218;SDS011;65463;43.864;20.136;2023-10-13T08:13:08;13.23;;;8.25;;
55218;SDS011;65463;43.864;20.136;2023-10-13T08:15:40;12.48;;;7.38;;
55218;SDS011;65463;43.864;20.136;2023-10-13T08:18:13;13.23;;;6.95;;
55218;SDS011;65463;43.864;20.136;2023-10-13T08:20:57;13.52;;;6.72;;
55218;SDS011;65463;43.864;20.136;2023-10-13T08:23:41;14.05;;;7.20;;
55218;SDS011;65463;43.864;20.136;2023-10-13T08:26:22;12.05;;;6.95;;
55218;SDS011;65463;43.864;20.136;2023-10-13T08:28:58;13.30;;;6.70;;
55218;SDS011;65463;43.864;20.136;2023-10-13T08:31:50;15.18;;;6.25;;
55218;SDS011;65463;43.864;20.136;2023-10-13T08:34:29;10.13;;;6.40;;
55218;SDS011;65463;43.864;20.136;2023-10-13T08:37:07;12.65;;;6.50;;
55218;SDS011;65463;43.864;20.136;2023-10-13T08:39:52;10.27;;;6.45;;
55218;SDS011;65463;43.864;20.136;2023-10-13T08:42:34;12.52;;;6.38;;
55218;SDS011;65463;43.864;20.136;2023-10-13T08:47:33;11.38;;;6.82;;
55218;SDS011;65463;43.864;20.136;2023-10-13T08:50:03;14.18;;;7.30;;
55218;SDS011;65463;43.864;20.136;2023-10-13T08:52:49;13.40;;;7.00;;
55218;SDS011;65463;43.864;20.136;2023-10-13T08:55:21;12.07;;;7.07;;
55218;SDS011;65463;43.864;20.136;2023-10-13T08:58:26;11.98;;;6.60;;
55218;SDS011;65463;43.864;20.136;2023-10-13T09:01:12;12.90;;;6.90;;
55218;SDS011;65463;43.864;20.136;2023-10-13T09:03:42;14.38;;;6.88;;
55218;SDS011;65463;43.864;20.136;2023-10-13T09:06:14;12.40;;;6.55;;
55218;SDS011;65463;43.864;20.136;2023-10-13T09:08:44;13.73;;;6.43;;
55218;SDS011;65463;43.864;20.136;2023-10-13T09:11:31;15.07;;;6.18;;
55218;SDS011;65463;43.864;20.136;2023-10-13T09:14:14;12.55;;;6.03;;
55218;SDS011;65463;43.864;20.136;2023-10-13T09:17:04;11.57;;;6.40;;
55218;SDS011;65463;43.864;20.136;2023-10-13T09:19:47;18.77;;;5.97;;
55218;SDS011;65463;43.864;20.136;2023-10-13T09:22:24;14.23;;;5.95;;
55218;SDS011;65463;43.864;20.136;2023-10-13T09:25:00;11.05;;;6.05;;
55218;SDS011;65463;43.864;20.136;2023-10-13T09:27:28;11.85;;;5.72;;
55218;SDS011;65463;43.864;20.136;2023-10-13T09:29:58;13.07;;;5.80;;
55218;SDS011;65463;43.864;20.136;2023-10-13T09:33:00;17.85;;;5.90;;
55218;SDS011;65463;43.864;20.136;2023-10-13T09:35:43;15.20;;;6.32;;
55218;SDS011;65463;43.864;20.136;2023-10-13T09:38:19;15.13;;;6.15;;
55218;SDS011;65463;43.864;20.136;2023-10-13T09:40:46;13.55;;;5.95;;
55218;SDS011;65463;43.864;20.136;2023-10-13T09:43:18;14.80;;;5.70;;
55218;SDS011;65463;43.864;20.136;2023-10-13T09:45:48;18.55;;;6.35;;
55218;SDS011;65463;43.864;20.136;2023-10-13T09:48:42;13.27;;;6.07;;
55218;SDS011;65463;43.864;20.136;2023-10-13T09:51:12;14.05;;;6.03;;
55218;SDS011;65463;43.864;20.136;2023-10-13T09:53:39;19.60;;;5.85;;
55218;SDS011;65463;43.864;20.136;2023-10-13T09:56:10;13.65;;;5.93;;
55218;SDS011;65463;43.864;20.136;2023-10-13T10:01:27;14.98;;;5.57;;
55218;SDS011;65463;43.864;20.136;2023-10-13T10:04:09;15.77;;;5.57;;
55218;SDS011;65463;43.864;20.136;2023-10-13T10:06:56;16.80;;;6.22;;
55218;SDS011;65463;43.864;20.136;2023-10-13T10:09:28;13.20;;;6.13;;
55218;SDS011;65463;43.864;20.136;2023-10-13T10:12:16;11.83;;;5.80;;
55218;SDS011;65463;43.864;20.136;2023-10-13T10:15:01;12.23;;;5.80;;
55218;SDS011;65463;43.864;20.136;2023-10-13T10:17:45;13.18;;;5.28;;
55218;SDS011;65463;43.864;20.136;2023-10-13T10:20:12;13.02;;;5.65;;
55218;SDS011;65463;43.864;20.136;2023-10-13T10:22:57;18.20;;;5.70;;
55218;SDS011;65463;43.864;20.136;2023-10-13T10:25:32;16.73;;;6.10;;
55218;SDS011;65463;43.864;20.136;2023-10-13T10:28:06;14.55;;;6.32;;
55218;SDS011;65463;43.864;20.136;2023-10-13T10:30:33;16.38;;;5.35;;
55218;SDS011;65463;43.864;20.136;2023-10-13T10:33:00;13.52;;;5.53;;
55218;SDS011;65463;43.864;20.136;2023-10-13T10:35:31;40.28;;;18.98;;
55218;SDS011;65463;43.864;20.136;2023-10-13T10:38:17;44.45;;;26.25;;
55218;SDS011;65463;43.864;20.136;2023-10-13T10:46:26;14.88;;;5.43;;
55218;SDS011;65463;43.864;20.136;2023-10-13T10:48:52;16.08;;;8.00;;
55218;SDS011;65463;43.864;20.136;2023-10-13T10:51:26;15.13;;;5.60;;
55218;SDS011;65463;43.864;20.136;2023-10-13T10:53:59;14.02;;;6.15;;
55218;SDS011;65463;43.864;20.136;2023-10-13T10:56:38;14.85;;;5.63;;
55218;SDS011;65463;43.864;20.136;2023-10-13T10:59:07;15.13;;;5.90;;
55218;SDS011;65463;43.864;20.136;2023-10-13T11:01:43;13.50;;;5.32;;
55218;SDS011;65463;43.864;20.136;2023-10-13T11:04:12;15.70;;;7.72;;
55218;SDS011;65463;43.864;20.136;2023-10-13T11:07:02;16.42;;;5.50;;
55218;SDS011;65463;43.864;20.136;2023-10-13T11:09:29;14.38;;;5.32;;
55218;SDS011;65463;43.864;20.136;2023-10-13T11:12:14;14.35;;;6.60;;
55218;SDS011;65463;43.864;20.136;2023-10-13T11:17:06;13.48;;;5.43;;
55218;SDS011;65463;43.864;20.136;2023-10-13T11:19:43;16.30;;;5.38;;
55218;SDS011;65463;43.864;20.136;2023-10-13T11:25:01;13.70;;;5.60;;
55218;SDS011;65463;43.864;20.136;2023-10-13T11:27:39;11.93;;;4.95;;
55218;SDS011;65463;43.864;20.136;2023-10-13T11:30:16;15.68;;;4.97;;
55218;SDS011;65463;43.864;20.136;2023-10-13T11:33:02;11.73;;;5.03;;
55218;SDS011;65463;43.864;20.136;2023-10-13T11:35:33;9.90;;;4.50;;
55218;SDS011;65463;43.864;20.136;2023-10-13T11:38:26;16.13;;;5.38;;
55218;SDS011;65463;43.864;20.136;2023-10-13T11:41:05;10.35;;;5.03;;
55218;SDS011;65463;43.864;20.136;2023-10-13T11:43:47;13.65;;;5.15;;
55218;SDS011;65463;43.864;20.136;2023-10-13T11:46:21;10.27;;;4.47;;
55218;SDS011;65463;43.864;20.136;2023-10-13T11:49:00;12.40;;;4.90;;
55218;SDS011;65463;43.864;20.136;2023-10-13T11:51:50;9.43;;;5.00;;
55218;SDS011;65463;43.864;20.136;2023-10-13T11:54:17;10.57;;;4.70;;
55218;SDS011;65463;43.864;20.136;2023-10-13T11:56:44;11.15;;;4.72;;
55218;SDS011;65463;43.864;20.136;2023-10-13T11:59:10;11.63;;;5.10;;
55218;SDS011;65463;43.864;20.136;2023-10-13T12:01:50;9.35;;;5.00;;
55218;SDS011;65463;43.864;20.136;2023-10-13T12:04:35;12.55;;;5.20;;
55218;SDS011;65463;43.864;20.136;2023-10-13T12:07:14;14.65;;;5.43;;
55218;SDS011;65463;43.864;20.136;2023-10-13T12:09:45;21.42;;;5.43;;
55218;SDS011;65463;43.864;20.136;2023-10-13T12:12:19;15.15;;;5.75;;
55218;SDS011;65463;43.864;20.136;2023-10-13T12:14:46;15.88;;;5.78;;
55218;SDS011;65463;43.864;20.136;2023-10-13T12:17:21;16.98;;;5.60;;
55218;SDS011;65463;43.864;20.136;2023-10-13T12:20:10;14.60;;;5.20;;
55218;SDS011;65463;43.864;20.136;2023-10-13T12:22:43;14.73;;;5.20;;
55218;SDS011;65463;43.864;20.136;2023-10-13T12:25:20;15.65;;;5.60;;
55218;SDS011;65463;43.864;20.136;2023-10-13T12:27:58;15.27;;;5.22;;
55218;SDS011;65463;43.864;20.136;2023-10-13T12:33:20;21.05;;;6.25;;
55218;SDS011;65463;43.864;20.136;2023-10-13T12:35:56;19.50;;;5.47;;
55218;SDS011;65463;43.864;20.136;2023-10-13T12:38:36;15.57;;;5.13;;
55218;SDS011;65463;43.864;20.136;2023-10-13T12:41:12;17.92;;;5.35;;
55218;SDS011;65463;43.864;20.136;2023-10-13T12:44:00;22.25;;;5.43;;
55218;SDS011;65463;43.864;20.136;2023-10-13T12:46:45;17.02;;;5.90;;
55218;SDS011;65463;43.864;20.136;2023-10-13T12:49:29;14.40;;;6.05;;
55218;SDS011;65463;43.864;20.136;2023-10-13T12:52:14;19.15;;;5.70;;
55218;SDS011;65463;43.864;20.136;2023-10-13T12:54:44;20.45;;;5.40;;
55218;SDS011;65463;43.864;20.136;2023-10-13T12:57:23;17.73;;;5.35;;
55218;SDS011;65463;43.864;20.136;2023-10-13T12:59:49;17.73;;;5.63;;
55218;SDS011;65463;43.864;20.136;2023-10-13T13:02:19;13.02;;;5.35;;
55218;SDS011;65463;43.864;20.136;2023-10-13T13:04:45;14.15;;;5.53;;
55218;SDS011;65463;43.864;20.136;2023-10-13T13:07:16;19.80;;;5.18;;
55218;SDS011;65463;43.864;20.136;2023-10-13T13:09:42;17.17;;;5.50;;
55218;SDS011;65463;43.864;20.136;2023-10-13T13:12:08;20.52;;;5.63;;
55218;SDS011;65463;43.864;20.136;2023-10-13T13:14:38;18.17;;;4.82;;
55218;SDS011;65463;43.864;20.136;2023-10-13T13:17:06;19.67;;;5.60;;
55218;SDS011;65463;43.864;20.136;2023-10-13T13:19:33;18.42;;;4.95;;
55218;SDS011;65463;43.864;20.136;2023-10-13T13:22:04;20.17;;;5.90;;
55218;SDS011;65463;43.864;20.136;2023-10-13T13:24:34;13.93;;;5.05;;
55218;SDS011;65463;43.864;20.136;2023-10-13T13:27:08;15.38;;;5.05;;
55218;SDS011;65463;43.864;20.136;2023-10-13T13:29:34;19.10;;;5.50;;
55218;SDS011;65463;43.864;20.136;2023-10-13T13:32:03;21.27;;;5.20;;
55218;SDS011;65463;43.864;20.136;2023-10-13T13:34:30;13.63;;;5.13;;
55218;SDS011;65463;43.864;20.136;2023-10-13T13:36:57;23.42;;;8.10;;
55218;SDS011;65463;43.864;20.136;2023-10-13T13:39:27;34.53;;;19.13;;
55218;SDS011;65463;43.864;20.136;2023-10-13T13:41:57;29.92;;;13.73;;
55218;SDS011;65463;43.864;20.136;2023-10-13T13:44:24;22.75;;;9.95;;
55218;SDS011;65463;43.864;20.136;2023-10-13T13:47:01;13.00;;;4.82;;
55218;SDS011;65463;43.864;20.136;2023-10-13T13:49:37;15.25;;;5.60;;
55218;SDS011;65463;43.864;20.136;2023-10-13T13:52:08;15.20;;;6.90;;
55218;SDS011;65463;43.864;20.136;2023-10-13T13:54:35;13.85;;;7.18;;
55218;SDS011;65463;43.864;20.136;2023-10-13T13:57:05;14.38;;;5.32;;
55218;SDS011;65463;43.864;20.136;2023-10-13T13:59:31;17.08;;;8.25;;
55218;SDS011;65463;43.864;20.136;2023-10-13T14:01:59;16.98;;;5.82;;
55218;SDS011;65463;43.864;20.136;2023-10-13T14:04:25;12.25;;;5.18;;
55218;SDS011;65463;43.864;20.136;2023-10-13T14:06:56;10.80;;;5.18;;
55218;SDS011;65463;43.864;20.136;2023-10-13T14:09:22;14.10;;;5.25;;
55218;SDS011;65463;43.864;20.136;2023-10-13T14:11:58;11.00;;;4.82;;
55218;SDS011;65463;43.864;20.136;2023-10-13T14:14:43;12.63;;;4.68;;
55218;SDS011;65463;43.864;20.136;2023-10-13T14:17:22;19.65;;;9.95;;
55218;SDS011;65463;43.864;20.136;2023-10-13T14:19:57;14.13;;;5.15;;
55218;SDS011;65463;43.864;20.136;2023-10-13T14:22:24;12.50;;;4.10;;
55218;SDS011;65463;43.864;20.136;2023-10-13T14:24:51;11.93;;;4.82;;
55218;SDS011;65463;43.864;20.136;2023-10-13T14:27:20;12.63;;;4.47;;
55218;SDS011;65463;43.864;20.136;2023-10-13T14:29:48;11.23;;;4.30;;
55218;SDS011;65463;43.864;20.136;2023-10-13T14:34:44;18.17;;;9.50;;
55218;SDS011;65463;43.864;20.136;2023-10-13T14:37:19;12.95;;;4.95;;
55218;SDS011;65463;43.864;20.136;2023-10-13T14:39:57;13.18;;;6.43;;
55218;SDS011;65463;43.864;20.136;2023-10-13T14:42:25;13.30;;;6.97;;
55218;SDS011;65463;43.864;20.136;2023-10-13T14:44:51;12.52;;;5.00;;
55218;SDS011;65463;43.864;20.136;2023-10-13T14:47:24;14.00;;;4.90;;
55218;SDS011;65463;43.864;20.136;2023-10-13T14:52:19;11.98;;;5.53;;
55218;SDS011;65463;43.864;20.136;2023-10-13T14:54:45;11.88;;;4.90;;
55218;SDS011;65463;43.864;20.136;2023-10-13T14:57:13;12.15;;;5.40;;
55218;SDS011;65463;43.864;20.136;2023-10-13T14:59:39;18.88;;;8.90;;
55218;SDS011;65463;43.864;20.136;2023-10-13T15:02:06;12.93;;;5.32;;
55218;SDS011;65463;43.864;20.136;2023-10-13T15:04:32;16.27;;;6.40;;
55218;SDS011;65463;43.864;20.136;2023-10-13T15:06:58;16.92;;;6.10;;
55218;SDS011;65463;43.864;20.136;2023-10-13T15:09:27;13.60;;;5.72;;
55218;SDS011;65463;43.864;20.136;2023-10-13T15:11:53;17.05;;;6.15;;
55218;SDS011;65463;43.864;20.136;2023-10-13T15:14:19;15.98;;;6.05;;
55218;SDS011;65463;43.864;20.136;2023-10-13T15:16:47;16.08;;;6.30;;
55218;SDS011;65463;43.864;20.136;2023-10-13T15:19:14;17.30;;;6.80;;
55218;SDS011;65463;43.864;20.136;2023-10-13T15:21:41;16.52;;;6.80;;
55218;SDS011;65463;43.864;20.136;2023-10-13T15:24:12;23.75;;;8.15;;
55218;SDS011;65463;43.864;20.136;2023-10-13T15:26:39;18.05;;;6.30;;
55218;SDS011;65463;43.864;20.136;2023-10-13T15:29:07;19.83;;;7.05;;
55218;SDS011;65463;43.864;20.136;2023-10-13T15:31:41;18.55;;;7.57;;
55218;SDS011;65463;43.864;20.136;2023-10-13T15:34:13;19.23;;;7.22;;
55218;SDS011;65463;43.864;20.136;2023-10-13T15:36:43;22.67;;;10.15;;
55218;SDS011;65463;43.864;20.136;2023-10-13T15:39:09;25.73;;;7.20;;
55218;SDS011;65463;43.864;20.136;2023-10-13T15:41:36;23.00;;;7.40;;